sensor_id;sensor_type;location;lat;lon;timestamp;temperature;humidity
65826;DHT22;52586;-43.152;172.732;2023-04-25T00:02:18;17.00;52.90
65826;DHT22;52586;-43.152;172.732;2023-04-25T00:04:49;17.00;52.90
65826;DHT22;52586;-43.152;172.732;2023-04-25T00:07:20;17.10;53.00
65826;DHT22;52586;-43.152;172.732;2023-04-25T00:09:53;17.10;53.00
65826;DHT22;52586;-43.152;172.732;2023-04-25T00:12:23;17.10;53.00
65826;DHT22;52586;-43.152;172.732;2023-04-25T00:14:55;17.20;53.10
65826;DHT22;52586;-43.152;172.732;2023-04-25T00:17:27;17.20;53.10
65826;DHT22;52586;-43.152;172.732;2023-04-25T00:19:58;17.30;53.10
65826;DHT22;52586;-43.152;172.732;2023-04-25T00:22:32;17.30;53.10
65826;DHT22;52586;-43.152;172.732;2023-04-25T00:25:07;17.30;53.10
65826;DHT22;52586;-43.152;172.732;2023-04-25T00:27:38;17.30;53.10
65826;DHT22;52586;-43.152;172.732;2023-04-25T00:30:10;17.40;53.10
65826;DHT22;52586;-43.152;172.732;2023-04-25T00:32:41;17.40;53.10
65826;DHT22;52586;-43.152;172.732;2023-04-25T00:35:11;17.50;53.10
65826;DHT22;52586;-43.152;172.732;2023-04-25T00:37:42;17.50;53.10
65826;DHT22;52586;-43.152;172.732;2023-04-25T00:40:21;17.60;53.20
65826;DHT22;52586;-43.152;172.732;2023-04-25T00:42:52;17.60;53.10
65826;DHT22;52586;-43.152;172.732;2023-04-25T00:45:28;17.60;53.10
65826;DHT22;52586;-43.152;172.732;2023-04-25T00:47:59;17.70;53.30
65826;DHT22;52586;-43.152;172.732;2023-04-25T00:50:30;17.70;54.00
65826;DHT22;52586;-43.152;172.732;2023-04-25T00:53:01;17.70;53.30
65826;DHT22;52586;-43.152;172.732;2023-04-25T00:55:34;17.80;54.00
65826;DHT22;52586;-43.152;172.732;2023-04-25T00:58:04;17.80;53.50
65826;DHT22;52586;-43.152;172.732;2023-04-25T01:00:35;17.90;53.50
65826;DHT22;52586;-43.152;172.732;2023-04-25T01:03:06;17.90;53.50
65826;DHT22;52586;-43.152;172.732;2023-04-25T01:05:37;17.90;53.60
65826;DHT22;52586;-43.152;172.732;2023-04-25T01:08:08;18.00;53.60
65826;DHT22;52586;-43.152;172.732;2023-04-25T01:10:41;18.10;53.50
65826;DHT22;52586;-43.152;172.732;2023-04-25T01:13:11;18.10;53.50
65826;DHT22;52586;-43.152;172.732;2023-04-25T01:15:42;18.10;53.60
65826;DHT22;52586;-43.152;172.732;2023-04-25T01:18:13;18.20;53.60
65826;DHT22;52586;-43.152;172.732;2023-04-25T01:20:44;18.30;53.70
65826;DHT22;52586;-43.152;172.732;2023-04-25T01:23:18;18.30;53.50
65826;DHT22;52586;-43.152;172.732;2023-04-25T01:25:50;18.30;53.50
65826;DHT22;52586;-43.152;172.732;2023-04-25T01:28:21;18.40;53.50
65826;DHT22;52586;-43.152;172.732;2023-04-25T01:30:52;18.50;53.50
65826;DHT22;52586;-43.152;172.732;2023-04-25T01:33:23;18.50;53.50
65826;DHT22;52586;-43.152;172.732;2023-04-25T01:35:54;18.50;53.40
65826;DHT22;52586;-43.152;172.732;2023-04-25T01:38:27;18.60;53.40
65826;DHT22;52586;-43.152;172.732;2023-04-25T01:40:57;18.60;53.30
65826;DHT22;52586;-43.152;172.732;2023-04-25T01:43:28;18.60;53.30
65826;DHT22;52586;-43.152;172.732;2023-04-25T01:46:00;18.70;53.30
65826;DHT22;52586;-43.152;172.732;2023-04-25T01:48:30;18.70;53.20
65826;DHT22;52586;-43.152;172.732;2023-04-25T01:51:01;18.80;53.20
65826;DHT22;52586;-43.152;172.732;2023-04-25T01:53:34;18.80;53.10
65826;DHT22;52586;-43.152;172.732;2023-04-25T01:56:05;18.80;53.00
65826;DHT22;52586;-43.152;172.732;2023-04-25T01:58:35;18.90;53.00
65826;DHT22;52586;-43.152;172.732;2023-04-25T02:01:06;18.90;52.90
65826;DHT22;52586;-43.152;172.732;2023-04-25T02:03:37;19.00;53.00
65826;DHT22;52586;-43.152;172.732;2023-04-25T02:06:08;19.00;52.90
65826;DHT22;52586;-43.152;172.732;2023-04-25T02:08:40;19.00;52.80
65826;DHT22;52586;-43.152;172.732;2023-04-25T02:11:11;19.00;52.70
65826;DHT22;52586;-43.152;172.732;2023-04-25T02:13:41;19.10;52.80
65826;DHT22;52586;-43.152;172.732;2023-04-25T02:16:12;19.20;52.70
65826;DHT22;52586;-43.152;172.732;2023-04-25T02:18:43;19.20;52.70
65826;DHT22;52586;-43.152;172.732;2023-04-25T02:21:13;19.20;52.60
65826;DHT22;52586;-43.152;172.732;2023-04-25T02:23:46;19.30;52.70
65826;DHT22;52586;-43.152;172.732;2023-04-25T02:26:17;19.30;52.60
65826;DHT22;52586;-43.152;172.732;2023-04-25T02:28:48;19.30;52.50
65826;DHT22;52586;-43.152;172.732;2023-04-25T02:31:19;19.30;52.50
65826;DHT22;52586;-43.152;172.732;2023-04-25T02:33:50;19.40;52.50
65826;DHT22;52586;-43.152;172.732;2023-04-25T02:36:20;19.40;52.40
65826;DHT22;52586;-43.152;172.732;2023-04-25T02:38:53;19.40;52.30
65826;DHT22;52586;-43.152;172.732;2023-04-25T02:41:24;19.50;52.30
65826;DHT22;52586;-43.152;172.732;2023-04-25T02:43:54;19.50;52.30
65826;DHT22;52586;-43.152;172.732;2023-04-25T02:46:25;19.50;52.20
65826;DHT22;52586;-43.152;172.732;2023-04-25T02:48:56;19.60;52.20
65826;DHT22;52586;-43.152;172.732;2023-04-25T02:51:26;19.60;52.10
65826;DHT22;52586;-43.152;172.732;2023-04-25T02:54:02;19.70;52.10
65826;DHT22;52586;-43.152;172.732;2023-04-25T02:56:34;19.70;52.10
65826;DHT22;52586;-43.152;172.732;2023-04-25T02:59:04;19.80;52.10
65826;DHT22;52586;-43.152;172.732;2023-04-25T03:01:35;19.80;52.10
65826;DHT22;52586;-43.152;172.732;2023-04-25T03:04:06;19.90;52.00
65826;DHT22;52586;-43.152;172.732;2023-04-25T03:06:36;19.90;52.00
65826;DHT22;52586;-43.152;172.732;2023-04-25T03:09:09;19.90;52.00
65826;DHT22;52586;-43.152;172.732;2023-04-25T03:11:40;20.00;52.10
65826;DHT22;52586;-43.152;172.732;2023-04-25T03:14:10;20.00;52.10
65826;DHT22;52586;-43.152;172.732;2023-04-25T03:16:41;20.10;52.00
65826;DHT22;52586;-43.152;172.732;2023-04-25T03:19:12;20.10;52.00
65826;DHT22;52586;-43.152;172.732;2023-04-25T03:21:43;20.10;52.00
65826;DHT22;52586;-43.152;172.732;2023-04-25T03:24:16;20.10;52.00
65826;DHT22;52586;-43.152;172.732;2023-04-25T03:26:47;20.20;51.90
65826;DHT22;52586;-43.152;172.732;2023-04-25T03:29:17;20.20;51.90
65826;DHT22;52586;-43.152;172.732;2023-04-25T03:31:52;20.30;52.00
65826;DHT22;52586;-43.152;172.732;2023-04-25T03:34:22;20.30;51.90
65826;DHT22;52586;-43.152;172.732;2023-04-25T03:36:53;20.40;51.90
65826;DHT22;52586;-43.152;172.732;2023-04-25T03:39:26;20.40;51.90
65826;DHT22;52586;-43.152;172.732;2023-04-25T03:41:56;20.40;51.80
65826;DHT22;52586;-43.152;172.732;2023-04-25T03:44:27;20.50;51.80
65826;DHT22;52586;-43.152;172.732;2023-04-25T03:46:58;20.50;51.80
65826;DHT22;52586;-43.152;172.732;2023-04-25T03:49:29;20.50;51.70
65826;DHT22;52586;-43.152;172.732;2023-04-25T03:51:59;20.50;51.60
65826;DHT22;52586;-43.152;172.732;2023-04-25T03:54:32;20.60;51.70
65826;DHT22;52586;-43.152;172.732;2023-04-25T03:57:02;20.60;51.50
65826;DHT22;52586;-43.152;172.732;2023-04-25T03:59:33;20.60;51.50
65826;DHT22;52586;-43.152;172.732;2023-04-25T04:02:04;20.60;51.50
65826;DHT22;52586;-43.152;172.732;2023-04-25T04:04:34;20.70;51.50
65826;DHT22;52586;-43.152;172.732;2023-04-25T04:07:05;20.70;51.50
65826;DHT22;52586;-43.152;172.732;2023-04-25T04:09:37;20.70;51.40
65826;DHT22;52586;-43.152;172.732;2023-04-25T04:12:08;20.80;51.40
65826;DHT22;52586;-43.152;172.732;2023-04-25T04:14:39;20.80;51.30
65826;DHT22;52586;-43.152;172.732;2023-04-25T04:17:10;20.80;51.30
65826;DHT22;52586;-43.152;172.732;2023-04-25T04:19:40;20.80;51.20
65826;DHT22;52586;-43.152;172.732;2023-04-25T04:22:11;20.90;51.20
65826;DHT22;52586;-43.152;172.732;2023-04-25T04:24:44;20.90;51.20
65826;DHT22;52586;-43.152;172.732;2023-04-25T04:27:14;20.90;51.20
65826;DHT22;52586;-43.152;172.732;2023-04-25T04:29:45;20.90;51.10
65826;DHT22;52586;-43.152;172.732;2023-04-25T04:32:16;20.90;51.00
65826;DHT22;52586;-43.152;172.732;2023-04-25T04:34:47;20.90;51.00
65826;DHT22;52586;-43.152;172.732;2023-04-25T04:37:17;21.00;50.90
65826;DHT22;52586;-43.152;172.732;2023-04-25T04:39:50;21.00;50.80
65826;DHT22;52586;-43.152;172.732;2023-04-25T04:42:21;21.00;50.70
65826;DHT22;52586;-43.152;172.732;2023-04-25T04:44:53;21.00;50.60
65826;DHT22;52586;-43.152;172.732;2023-04-25T04:47:24;21.00;50.50
65826;DHT22;52586;-43.152;172.732;2023-04-25T04:49:58;21.10;51.10
65826;DHT22;52586;-43.152;172.732;2023-04-25T04:52:29;21.10;50.50
65826;DHT22;52586;-43.152;172.732;2023-04-25T04:55:01;21.10;50.40
65826;DHT22;52586;-43.152;172.732;2023-04-25T04:57:32;21.10;50.40
65826;DHT22;52586;-43.152;172.732;2023-04-25T05:00:03;21.10;50.30
65826;DHT22;52586;-43.152;172.732;2023-04-25T05:02:38;21.10;50.20
65826;DHT22;52586;-43.152;172.732;2023-04-25T05:05:09;21.10;50.20
65826;DHT22;52586;-43.152;172.732;2023-04-25T05:07:40;21.20;50.20
65826;DHT22;52586;-43.152;172.732;2023-04-25T05:10:12;21.20;50.20
65826;DHT22;52586;-43.152;172.732;2023-04-25T05:12:43;21.10;50.00
65826;DHT22;52586;-43.152;172.732;2023-04-25T05:15:14;21.20;50.10
65826;DHT22;52586;-43.152;172.732;2023-04-25T05:17:44;21.20;50.00
65826;DHT22;52586;-43.152;172.732;2023-04-25T05:20:15;21.20;50.00
65826;DHT22;52586;-43.152;172.732;2023-04-25T05:22:46;21.20;50.00
65826;DHT22;52586;-43.152;172.732;2023-04-25T05:25:19;21.20;50.00
65826;DHT22;52586;-43.152;172.732;2023-04-25T05:27:50;21.20;49.90
65826;DHT22;52586;-43.152;172.732;2023-04-25T05:30:20;21.20;49.90
65826;DHT22;52586;-43.152;172.732;2023-04-25T05:32:51;21.20;49.90
65826;DHT22;52586;-43.152;172.732;2023-04-25T05:35:22;21.20;50.00
65826;DHT22;52586;-43.152;172.732;2023-04-25T05:37:52;21.20;50.00
65826;DHT22;52586;-43.152;172.732;2023-04-25T05:40:25;21.20;50.00
65826;DHT22;52586;-43.152;172.732;2023-04-25T05:42:56;21.20;50.00
65826;DHT22;52586;-43.152;172.732;2023-04-25T05:45:26;21.20;50.00
65826;DHT22;52586;-43.152;172.732;2023-04-25T05:47:57;21.20;49.90
65826;DHT22;52586;-43.152;172.732;2023-04-25T05:50:27;21.20;49.90
65826;DHT22;52586;-43.152;172.732;2023-04-25T05:52:58;21.20;49.90
65826;DHT22;52586;-43.152;172.732;2023-04-25T05:55:31;21.20;49.90
65826;DHT22;52586;-43.152;172.732;2023-04-25T05:58:01;21.20;49.70
65826;DHT22;52586;-43.152;172.732;2023-04-25T06:00:32;21.20;49.60
65826;DHT22;52586;-43.152;172.732;2023-04-25T06:03:03;21.20;49.30
65826;DHT22;52586;-43.152;172.732;2023-04-25T06:05:35;21.20;49.30
65826;DHT22;52586;-43.152;172.732;2023-04-25T06:08:06;21.10;49.30
65826;DHT22;52586;-43.152;172.732;2023-04-25T06:10:38;21.20;49.30
65826;DHT22;52586;-43.152;172.732;2023-04-25T06:13:09;21.10;49.10
65826;DHT22;52586;-43.152;172.732;2023-04-25T06:15:39;21.10;49.10
65826;DHT22;52586;-43.152;172.732;2023-04-25T06:18:10;21.10;49.00
65826;DHT22;52586;-43.152;172.732;2023-04-25T06:20:41;21.10;48.40
65826;DHT22;52586;-43.152;172.732;2023-04-25T06:23:12;21.10;48.10
65826;DHT22;52586;-43.152;172.732;2023-04-25T06:25:44;21.10;47.80
65826;DHT22;52586;-43.152;172.732;2023-04-25T06:28:15;21.00;47.60
65826;DHT22;52586;-43.152;172.732;2023-04-25T06:30:45;21.00;47.90
65826;DHT22;52586;-43.152;172.732;2023-04-25T06:33:16;21.00;48.00
65826;DHT22;52586;-43.152;172.732;2023-04-25T06:35:47;21.00;48.00
65826;DHT22;52586;-43.152;172.732;2023-04-25T06:38:18;21.00;48.00
65826;DHT22;52586;-43.152;172.732;2023-04-25T06:40:50;21.00;48.00
65826;DHT22;52586;-43.152;172.732;2023-04-25T06:43:21;21.00;48.10
65826;DHT22;52586;-43.152;172.732;2023-04-25T06:45:52;21.00;48.00
65826;DHT22;52586;-43.152;172.732;2023-04-25T06:48:22;21.00;48.00
65826;DHT22;52586;-43.152;172.732;2023-04-25T06:50:53;20.90;47.90
65826;DHT22;52586;-43.152;172.732;2023-04-25T06:53:24;21.00;47.90
65826;DHT22;52586;-43.152;172.732;2023-04-25T06:55:56;20.90;47.70
65826;DHT22;52586;-43.152;172.732;2023-04-25T06:58:27;20.90;47.60
65826;DHT22;52586;-43.152;172.732;2023-04-25T07:00:58;20.90;47.60
65826;DHT22;52586;-43.152;172.732;2023-04-25T07:03:28;20.90;47.60
65826;DHT22;52586;-43.152;172.732;2023-04-25T07:06:00;20.90;47.60
65826;DHT22;52586;-43.152;172.732;2023-04-25T07:08:31;20.90;47.60
65826;DHT22;52586;-43.152;172.732;2023-04-25T07:11:03;20.90;47.50
65826;DHT22;52586;-43.152;172.732;2023-04-25T07:13:34;20.90;47.60
65826;DHT22;52586;-43.152;172.732;2023-04-25T07:16:05;20.90;47.70
65826;DHT22;52586;-43.152;172.732;2023-04-25T07:18:36;20.80;47.70
65826;DHT22;52586;-43.152;172.732;2023-04-25T07:21:06;20.90;47.90
65826;DHT22;52586;-43.152;172.732;2023-04-25T07:23:37;20.80;47.80
65826;DHT22;52586;-43.152;172.732;2023-04-25T07:26:10;20.90;47.90
65826;DHT22;52586;-43.152;172.732;2023-04-25T07:28:40;20.80;47.90
65826;DHT22;52586;-43.152;172.732;2023-04-25T07:31:11;20.80;47.90
65826;DHT22;52586;-43.152;172.732;2023-04-25T07:33:42;20.80;47.70
65826;DHT22;52586;-43.152;172.732;2023-04-25T07:36:12;20.80;47.50
65826;DHT22;52586;-43.152;172.732;2023-04-25T07:38:43;20.80;47.50
65826;DHT22;52586;-43.152;172.732;2023-04-25T07:43:53;20.80;47.40
65826;DHT22;52586;-43.152;172.732;2023-04-25T07:46:24;20.80;47.40
65826;DHT22;52586;-43.152;172.732;2023-04-25T07:48:54;20.80;47.40
65826;DHT22;52586;-43.152;172.732;2023-04-25T07:51:25;20.80;47.40
65826;DHT22;52586;-43.152;172.732;2023-04-25T07:53:55;20.80;47.40
65826;DHT22;52586;-43.152;172.732;2023-04-25T07:56:27;20.80;47.50
65826;DHT22;52586;-43.152;172.732;2023-04-25T07:58:59;20.70;47.60
65826;DHT22;52586;-43.152;172.732;2023-04-25T08:01:30;20.80;47.70
65826;DHT22;52586;-43.152;172.732;2023-04-25T08:04:00;20.70;47.70
65826;DHT22;52586;-43.152;172.732;2023-04-25T08:06:31;20.70;47.70
65826;DHT22;52586;-43.152;172.732;2023-04-25T08:09:02;20.70;47.80
65826;DHT22;52586;-43.152;172.732;2023-04-25T08:11:33;20.70;47.80
65826;DHT22;52586;-43.152;172.732;2023-04-25T08:14:06;20.70;47.80
65826;DHT22;52586;-43.152;172.732;2023-04-25T08:16:36;20.70;47.50
65826;DHT22;52586;-43.152;172.732;2023-04-25T08:19:07;20.70;47.40
65826;DHT22;52586;-43.152;172.732;2023-04-25T08:21:37;20.70;47.40
65826;DHT22;52586;-43.152;172.732;2023-04-25T08:24:08;20.70;47.40
65826;DHT22;52586;-43.152;172.732;2023-04-25T08:26:39;20.70;47.40
65826;DHT22;52586;-43.152;172.732;2023-04-25T08:29:11;20.70;47.40
65826;DHT22;52586;-43.152;172.732;2023-04-25T08:31:42;20.60;47.30
65826;DHT22;52586;-43.152;172.732;2023-04-25T08:34:12;20.60;47.20
65826;DHT22;52586;-43.152;172.732;2023-04-25T08:36:43;20.60;47.40
65826;DHT22;52586;-43.152;172.732;2023-04-25T08:39:13;20.60;47.50
65826;DHT22;52586;-43.152;172.732;2023-04-25T08:41:44;20.60;47.50
65826;DHT22;52586;-43.152;172.732;2023-04-25T08:44:17;20.60;47.60
65826;DHT22;52586;-43.152;172.732;2023-04-25T08:46:50;20.60;46.80
65826;DHT22;52586;-43.152;172.732;2023-04-25T08:49:22;20.60;46.30
65826;DHT22;52586;-43.152;172.732;2023-04-25T08:51:53;20.50;46.20
65826;DHT22;52586;-43.152;172.732;2023-04-25T08:54:28;20.50;46.30
65826;DHT22;52586;-43.152;172.732;2023-04-25T08:57:00;20.40;46.60
65826;DHT22;52586;-43.152;172.732;2023-04-25T08:59:33;20.40;46.80
65826;DHT22;52586;-43.152;172.732;2023-04-25T09:02:04;20.50;47.10
65826;DHT22;52586;-43.152;172.732;2023-04-25T09:04:37;20.50;47.20
65826;DHT22;52586;-43.152;172.732;2023-04-25T09:07:07;20.40;47.30
65826;DHT22;52586;-43.152;172.732;2023-04-25T09:09:38;20.40;47.30
65826;DHT22;52586;-43.152;172.732;2023-04-25T09:12:09;20.40;47.30
65826;DHT22;52586;-43.152;172.732;2023-04-25T09:14:42;20.40;47.40
65826;DHT22;52586;-43.152;172.732;2023-04-25T09:17:12;20.40;47.40
65826;DHT22;52586;-43.152;172.732;2023-04-25T09:19:48;20.40;47.40
65826;DHT22;52586;-43.152;172.732;2023-04-25T09:22:18;20.40;47.40
65826;DHT22;52586;-43.152;172.732;2023-04-25T09:24:50;20.40;47.50
65826;DHT22;52586;-43.152;172.732;2023-04-25T09:27:21;20.40;47.60
65826;DHT22;52586;-43.152;172.732;2023-04-25T09:29:59;20.40;47.50
65826;DHT22;52586;-43.152;172.732;2023-04-25T09:32:30;20.40;47.50
65826;DHT22;52586;-43.152;172.732;2023-04-25T09:35:00;20.50;47.70
65826;DHT22;52586;-43.152;172.732;2023-04-25T09:37:32;20.40;47.70
65826;DHT22;52586;-43.152;172.732;2023-04-25T09:40:06;20.40;47.70
65826;DHT22;52586;-43.152;172.732;2023-04-25T09:42:42;20.40;47.70
65826;DHT22;52586;-43.152;172.732;2023-04-25T09:45:15;20.40;47.60
65826;DHT22;52586;-43.152;172.732;2023-04-25T09:47:46;20.40;47.70
65826;DHT22;52586;-43.152;172.732;2023-04-25T09:50:18;20.40;47.60
65826;DHT22;52586;-43.152;172.732;2023-04-25T09:53:04;20.40;47.60
65826;DHT22;52586;-43.152;172.732;2023-04-25T09:55:35;20.30;47.60
65826;DHT22;52586;-43.152;172.732;2023-04-25T09:58:06;20.30;47.70
65826;DHT22;52586;-43.152;172.732;2023-04-25T10:00:40;20.30;47.70
65826;DHT22;52586;-43.152;172.732;2023-04-25T10:03:12;20.40;47.90
65826;DHT22;52586;-43.152;172.732;2023-04-25T10:05:43;20.40;47.90
65826;DHT22;52586;-43.152;172.732;2023-04-25T10:08:14;20.40;47.90
65826;DHT22;52586;-43.152;172.732;2023-04-25T10:10:44;20.30;47.90
65826;DHT22;52586;-43.152;172.732;2023-04-25T10:13:15;20.30;47.90
65826;DHT22;52586;-43.152;172.732;2023-04-25T10:15:48;20.30;47.90
65826;DHT22;52586;-43.152;172.732;2023-04-25T10:18:20;20.30;47.90
65826;DHT22;52586;-43.152;172.732;2023-04-25T10:20:51;20.30;47.90
65826;DHT22;52586;-43.152;172.732;2023-04-25T10:23:23;20.30;47.90
65826;DHT22;52586;-43.152;172.732;2023-04-25T10:25:54;20.30;47.90
65826;DHT22;52586;-43.152;172.732;2023-04-25T10:28:25;20.30;47.90
65826;DHT22;52586;-43.152;172.732;2023-04-25T10:31:01;20.30;47.90
65826;DHT22;52586;-43.152;172.732;2023-04-25T10:33:36;20.30;47.90
65826;DHT22;52586;-43.152;172.732;2023-04-25T10:36:13;20.30;47.90
65826;DHT22;52586;-43.152;172.732;2023-04-25T10:38:45;20.20;47.90
65826;DHT22;52586;-43.152;172.732;2023-04-25T10:41:17;20.20;48.00
65826;DHT22;52586;-43.152;172.732;2023-04-25T10:44:02;20.20;48.00
65826;DHT22;52586;-43.152;172.732;2023-04-25T10:46:36;20.20;48.00
65826;DHT22;52586;-43.152;172.732;2023-04-25T10:49:09;20.20;48.10
65826;DHT22;52586;-43.152;172.732;2023-04-25T10:51:39;20.20;48.10
65826;DHT22;52586;-43.152;172.732;2023-04-25T10:54:10;20.20;48.20
65826;DHT22;52586;-43.152;172.732;2023-04-25T10:56:42;20.20;48.20
65826;DHT22;52586;-43.152;172.732;2023-04-25T10:59:14;20.20;48.20
65826;DHT22;52586;-43.152;172.732;2023-04-25T11:01:47;20.20;48.20
65826;DHT22;52586;-43.152;172.732;2023-04-25T11:04:22;20.20;48.10
65826;DHT22;52586;-43.152;172.732;2023-04-25T11:07:04;20.20;48.20
65826;DHT22;52586;-43.152;172.732;2023-04-25T11:09:36;20.20;48.20
65826;DHT22;52586;-43.152;172.732;2023-04-25T11:12:09;20.20;48.10
65826;DHT22;52586;-43.152;172.732;2023-04-25T11:14:40;20.10;48.10
65826;DHT22;52586;-43.152;172.732;2023-04-25T11:17:13;20.10;48.10
65826;DHT22;52586;-43.152;172.732;2023-04-25T11:19:43;20.10;48.10
65826;DHT22;52586;-43.152;172.732;2023-04-25T11:22:18;20.10;48.20
65826;DHT22;52586;-43.152;172.732;2023-04-25T11:24:51;20.10;48.20
65826;DHT22;52586;-43.152;172.732;2023-04-25T11:27:22;20.10;48.30
65826;DHT22;52586;-43.152;172.732;2023-04-25T11:29:53;20.10;48.90
65826;DHT22;52586;-43.152;172.732;2023-04-25T11:32:26;20.10;48.40
65826;DHT22;52586;-43.152;172.732;2023-04-25T11:34:57;20.10;48.40
65826;DHT22;52586;-43.152;172.732;2023-04-25T11:37:28;20.10;48.40
65826;DHT22;52586;-43.152;172.732;2023-04-25T11:39:59;20.10;48.40
65826;DHT22;52586;-43.152;172.732;2023-04-25T11:42:30;20.10;48.40
65826;DHT22;52586;-43.152;172.732;2023-04-25T11:45:01;20.10;48.40
65826;DHT22;52586;-43.152;172.732;2023-04-25T11:47:34;20.10;48.40
65826;DHT22;52586;-43.152;172.732;2023-04-25T11:50:06;20.10;48.40
65826;DHT22;52586;-43.152;172.732;2023-04-25T11:52:38;20.00;48.40
65826;DHT22;52586;-43.152;172.732;2023-04-25T11:55:10;20.00;48.40
65826;DHT22;52586;-43.152;172.732;2023-04-25T11:57:43;20.00;48.40
65826;DHT22;52586;-43.152;172.732;2023-04-25T12:00:15;20.00;48.40
65826;DHT22;52586;-43.152;172.732;2023-04-25T12:02:51;20.00;48.50
65826;DHT22;52586;-43.152;172.732;2023-04-25T12:05:25;20.00;48.50
65826;DHT22;52586;-43.152;172.732;2023-04-25T12:07:56;20.00;48.60
65826;DHT22;52586;-43.152;172.732;2023-04-25T12:10:27;20.00;48.60
65826;DHT22;52586;-43.152;172.732;2023-04-25T12:12:58;20.00;48.60
65826;DHT22;52586;-43.152;172.732;2023-04-25T12:15:28;20.00;48.70
65826;DHT22;52586;-43.152;172.732;2023-04-25T12:18:03;20.00;48.70
65826;DHT22;52586;-43.152;172.732;2023-04-25T12:20:33;20.00;48.70
65826;DHT22;52586;-43.152;172.732;2023-04-25T12:23:08;20.00;48.70
65826;DHT22;52586;-43.152;172.732;2023-04-25T12:25:40;19.90;48.70
65826;DHT22;52586;-43.152;172.732;2023-04-25T12:28:12;19.90;48.60
65826;DHT22;52586;-43.152;172.732;2023-04-25T12:30:59;19.90;48.60
65826;DHT22;52586;-43.152;172.732;2023-04-25T12:33:33;19.90;48.70
65826;DHT22;52586;-43.152;172.732;2023-04-25T12:36:04;19.90;48.70
65826;DHT22;52586;-43.152;172.732;2023-04-25T12:38:39;19.90;48.70
65826;DHT22;52586;-43.152;172.732;2023-04-25T12:41:10;19.80;48.60
65826;DHT22;52586;-43.152;172.732;2023-04-25T12:43:41;19.80;48.70
65826;DHT22;52586;-43.152;172.732;2023-04-25T12:46:11;19.80;48.70
65826;DHT22;52586;-43.152;172.732;2023-04-25T12:48:44;19.80;48.80
65826;DHT22;52586;-43.152;172.732;2023-04-25T12:51:14;19.80;48.80
65826;DHT22;52586;-43.152;172.732;2023-04-25T12:53:45;19.80;48.90
65826;DHT22;52586;-43.152;172.732;2023-04-25T12:56:16;19.80;48.90
65826;DHT22;52586;-43.152;172.732;2023-04-25T12:58:46;19.80;48.90
65826;DHT22;52586;-43.152;172.732;2023-04-25T13:01:18;19.80;49.00
65826;DHT22;52586;-43.152;172.732;2023-04-25T13:03:50;19.80;48.90
65826;DHT22;52586;-43.152;172.732;2023-04-25T13:06:21;19.80;48.90
65826;DHT22;52586;-43.152;172.732;2023-04-25T13:08:52;19.80;48.90
65826;DHT22;52586;-43.152;172.732;2023-04-25T13:11:23;19.80;48.90
65826;DHT22;52586;-43.152;172.732;2023-04-25T13:13:53;19.80;48.90
65826;DHT22;52586;-43.152;172.732;2023-04-25T13:16:24;19.70;48.80
65826;DHT22;52586;-43.152;172.732;2023-04-25T13:18:56;19.70;48.80
65826;DHT22;52586;-43.152;172.732;2023-04-25T13:21:29;19.70;48.80
65826;DHT22;52586;-43.152;172.732;2023-04-25T13:24:00;19.70;48.90
65826;DHT22;52586;-43.152;172.732;2023-04-25T13:26:30;19.70;49.60
65826;DHT22;52586;-43.152;172.732;2023-04-25T13:29:01;19.70;49.00
65826;DHT22;52586;-43.152;172.732;2023-04-25T13:31:32;19.70;49.00
65826;DHT22;52586;-43.152;172.732;2023-04-25T13:34:05;19.70;49.10
65826;DHT22;52586;-43.152;172.732;2023-04-25T13:36:35;19.70;49.10
65826;DHT22;52586;-43.152;172.732;2023-04-25T13:39:06;19.70;49.10
65826;DHT22;52586;-43.152;172.732;2023-04-25T13:44:13;19.70;49.20
65826;DHT22;52586;-43.152;172.732;2023-04-25T13:46:44;19.70;49.20
65826;DHT22;52586;-43.152;172.732;2023-04-25T13:49:16;19.70;49.20
65826;DHT22;52586;-43.152;172.732;2023-04-25T13:51:47;19.70;49.20
65826;DHT22;52586;-43.152;172.732;2023-04-25T13:54:18;19.70;49.20
65826;DHT22;52586;-43.152;172.732;2023-04-25T13:56:49;19.70;49.20
65826;DHT22;52586;-43.152;172.732;2023-04-25T13:59:20;19.70;49.20
65826;DHT22;52586;-43.152;172.732;2023-04-25T14:01:54;19.60;49.20
65826;DHT22;52586;-43.152;172.732;2023-04-25T14:04:27;19.60;49.20
65826;DHT22;52586;-43.152;172.732;2023-04-25T14:06:58;19.60;49.20
65826;DHT22;52586;-43.152;172.732;2023-04-25T14:09:28;19.60;49.30
65826;DHT22;52586;-43.152;172.732;2023-04-25T14:11:59;19.60;49.30
65826;DHT22;52586;-43.152;172.732;2023-04-25T14:14:30;19.60;49.40
65826;DHT22;52586;-43.152;172.732;2023-04-25T14:17:00;19.60;49.40
65826;DHT22;52586;-43.152;172.732;2023-04-25T14:19:33;19.60;49.40
65826;DHT22;52586;-43.152;172.732;2023-04-25T14:22:05;19.60;49.50
65826;DHT22;52586;-43.152;172.732;2023-04-25T14:24:36;19.60;49.50
65826;DHT22;52586;-43.152;172.732;2023-04-25T14:27:07;19.60;49.50
65826;DHT22;52586;-43.152;172.732;2023-04-25T14:29:37;19.60;49.50
65826;DHT22;52586;-43.152;172.732;2023-04-25T14:32:08;19.50;49.40
65826;DHT22;52586;-43.152;172.732;2023-04-25T14:34:41;19.60;49.40
65826;DHT22;52586;-43.152;172.732;2023-04-25T14:37:11;19.50;49.40
65826;DHT22;52586;-43.152;172.732;2023-04-25T14:39:42;19.60;49.50
65826;DHT22;52586;-43.152;172.732;2023-04-25T14:42:13;19.50;49.40
65826;DHT22;52586;-43.152;172.732;2023-04-25T14:44:43;19.50;49.50
65826;DHT22;52586;-43.152;172.732;2023-04-25T14:47:14;19.50;49.60
65826;DHT22;52586;-43.152;172.732;2023-04-25T14:49:47;19.50;49.50
65826;DHT22;52586;-43.152;172.732;2023-04-25T14:52:21;19.50;49.60
65826;DHT22;52586;-43.152;172.732;2023-04-25T14:54:53;19.50;49.60
65826;DHT22;52586;-43.152;172.732;2023-04-25T14:57:23;19.50;49.60
65826;DHT22;52586;-43.152;172.732;2023-04-25T14:59:54;19.50;49.70
65826;DHT22;52586;-43.152;172.732;2023-04-25T15:02:25;19.40;49.70
65826;DHT22;52586;-43.152;172.732;2023-04-25T15:04:58;19.40;49.70
65826;DHT22;52586;-43.152;172.732;2023-04-25T15:07:28;19.40;49.70
65826;DHT22;52586;-43.152;172.732;2023-04-25T15:10:00;19.40;49.70
65826;DHT22;52586;-43.152;172.732;2023-04-25T15:12:30;19.40;49.70
65826;DHT22;52586;-43.152;172.732;2023-04-25T15:15:01;19.40;49.70
65826;DHT22;52586;-43.152;172.732;2023-04-25T15:17:33;19.40;49.70
65826;DHT22;52586;-43.152;172.732;2023-04-25T15:20:06;19.40;49.70